createdAt,value
2017-08-25T06:00:59.910Z,83.10
2017-08-25T06:03:27.636Z,83.00
2017-08-25T06:05:56.241Z,82.60
2017-08-25T06:08:24.607Z,82.10
2017-08-25T06:10:52.365Z,81.20
2017-08-25T06:15:54.757Z,80.00
2017-08-25T06:18:22.649Z,79.40
2017-08-25T06:20:50.836Z,79.10
2017-08-25T06:23:18.868Z,78.50
2017-08-25T06:25:47.533Z,77.80
2017-08-25T06:28:16.586Z,77.10
2017-08-25T06:30:45.331Z,76.90
2017-08-25T06:33:13.035Z,76.20
2017-08-25T06:35:41.575Z,74.80
2017-08-25T06:38:11.284Z,74.70
2017-08-25T06:40:44.585Z,75.10
2017-08-25T06:43:12.176Z,75.10
2017-08-25T06:45:40.018Z,75.50
2017-08-25T06:48:08.143Z,75.80
2017-08-25T06:50:35.795Z,76.00
2017-08-25T06:53:03.496Z,75.60
2017-08-25T06:55:31.710Z,75.30
2017-08-25T06:57:59.509Z,73.90
2017-08-25T07:00:28.479Z,73.40
2017-08-25T07:02:56.704Z,71.30
2017-08-25T07:05:24.330Z,68.90
2017-08-25T07:07:52.793Z,61.40
2017-08-25T07:10:20.337Z,61.40
2017-08-25T07:12:48.277Z,60.40
2017-08-25T07:15:16.192Z,56.90
2017-08-25T07:17:45.136Z,55.00
2017-08-25T07:20:12.845Z,55.00
2017-08-25T07:22:42.181Z,51.60
2017-08-25T07:25:09.966Z,50.80
2017-08-25T07:27:38.873Z,48.70
2017-08-25T07:30:06.589Z,48.60
2017-08-25T07:32:35.104Z,47.10
2017-08-25T07:35:03.107Z,46.00
2017-08-25T07:37:30.951Z,45.80
2017-08-25T07:39:58.705Z,44.50
2017-08-25T07:42:26.765Z,42.80
2017-08-25T07:44:54.866Z,44.40
2017-08-25T07:47:22.406Z,42.60
2017-08-25T07:49:51.359Z,43.10
2017-08-25T07:52:19.021Z,43.10
2017-08-25T07:54:47.900Z,41.70
2017-08-25T07:57:16.468Z,41.90
2017-08-25T07:59:44.577Z,41.90
2017-08-25T08:02:13.459Z,42.40
2017-08-25T08:04:42.456Z,41.20
2017-08-25T08:07:11.691Z,42.00
2017-08-25T08:09:39.823Z,41.30
2017-08-25T08:12:08.265Z,40.40
2017-08-25T08:14:38.623Z,40.80
2017-08-25T08:17:07.277Z,39.80
2017-08-25T08:19:35.161Z,39.70
2017-08-25T08:22:03.659Z,38.60
2017-08-25T08:24:32.573Z,38.60
2017-08-25T08:27:00.641Z,36.60
2017-08-25T08:29:28.605Z,38.20
2017-08-25T08:31:56.504Z,37.90
2017-08-25T08:34:25.092Z,37.50
2017-08-25T08:36:53.221Z,37.90
2017-08-25T08:41:57.948Z,39.70
2017-08-25T08:44:27.336Z,39.20
2017-08-25T08:46:57.285Z,39.10
2017-08-25T08:49:24.939Z,37.10
2017-08-25T08:51:53.702Z,33.90
2017-08-25T08:54:22.097Z,33.80
2017-08-25T08:56:49.789Z,33.20
2017-08-25T08:59:17.880Z,35.60
2017-08-25T09:01:46.831Z,36.20
2017-08-25T09:04:18.216Z,35.90
2017-08-25T09:06:46.767Z,34.30
2017-08-25T09:09:14.405Z,35.80
2017-08-25T09:11:43.266Z,37.90
2017-08-25T09:14:11.844Z,38.00
2017-08-25T09:16:39.712Z,38.20
2017-08-25T09:22:05.855Z,39.20
2017-08-25T09:24:33.918Z,38.00
2017-08-25T09:27:01.769Z,37.40
2017-08-25T09:29:30.116Z,37.20
2017-08-25T09:31:58.073Z,36.60
2017-08-25T09:34:25.730Z,37.40
2017-08-25T09:36:54.201Z,37.70
2017-08-25T09:39:22.892Z,37.60
2017-08-25T09:41:50.699Z,37.90
2017-08-25T09:44:21.727Z,36.80
2017-08-25T09:46:49.883Z,36.60
2017-08-25T09:49:17.999Z,35.80
2017-08-25T09:51:46.277Z,35.70
2017-08-25T09:54:14.021Z,35.30
2017-08-25T09:56:42.832Z,36.40
2017-08-25T09:59:10.833Z,36.60
2017-08-25T10:01:45.659Z,35.80
2017-08-25T10:04:28.271Z,35.70
2017-08-25T10:06:56.401Z,35.20
2017-08-25T10:09:24.573Z,35.90
2017-08-25T10:12:03.317Z,35.20
2017-08-25T10:14:34.118Z,34.60
2017-08-25T10:17:05.316Z,34.00
2017-08-25T10:19:37.566Z,33.30
2017-08-25T10:22:07.647Z,34.00
2017-08-25T10:24:39.985Z,33.80
2017-08-25T10:27:11.098Z,34.10
2017-08-25T10:29:48.163Z,33.80
2017-08-25T10:44:27.790Z,32.90
2017-08-25T10:47:07.074Z,36.00
2017-08-25T10:52:36.730Z,36.60
2017-08-25T10:55:04.341Z,37.60
2017-08-25T10:57:31.912Z,36.50
2017-08-25T11:00:00.263Z,36.20
2017-08-25T11:02:27.752Z,36.10
2017-08-25T11:04:55.856Z,36.30
2017-08-25T11:07:23.541Z,37.90
2017-08-25T11:16:02.609Z,41.90
2017-08-25T11:18:32.165Z,42.50
2017-08-25T11:21:01.436Z,42.70
2017-08-25T11:23:35.033Z,42.70
2017-08-25T11:26:04.544Z,43.50
2017-08-25T11:28:35.073Z,43.80
2017-08-25T11:31:04.701Z,43.80
2017-08-25T11:33:33.973Z,44.50
2017-08-25T11:36:02.638Z,44.50
2017-08-25T11:38:31.992Z,44.20
2017-08-25T11:41:15.736Z,44.00
2017-08-25T11:43:44.379Z,44.10
2017-08-25T11:46:13.591Z,43.30
2017-08-25T11:48:43.807Z,43.80
2017-08-25T11:51:12.377Z,43.70
2017-08-25T11:53:41.881Z,43.80
2017-08-25T11:56:10.662Z,44.40
2017-08-25T11:58:39.594Z,44.70
2017-08-25T12:01:08.656Z,44.90
2017-08-25T12:03:39.411Z,45.00
2017-08-25T12:06:08.392Z,45.00
2017-08-25T12:08:38.419Z,44.40
2017-08-25T12:11:06.180Z,45.10
2017-08-25T12:13:34.996Z,45.00
2017-08-25T12:16:12.638Z,45.00
2017-08-25T12:18:47.940Z,45.80
2017-08-25T12:21:35.297Z,45.20
2017-08-25T12:24:09.237Z,45.50
2017-08-25T12:26:51.125Z,45.90
2017-08-25T12:29:43.062Z,45.80
2017-08-25T12:32:17.414Z,45.50
2017-08-25T12:35:02.028Z,45.20
2017-08-25T12:37:32.140Z,45.40
2017-08-25T12:44:37.418Z,44.90
2017-08-25T12:49:57.900Z,44.60
2017-08-25T12:53:02.050Z,44.40
2017-08-25T12:56:10.634Z,44.60
2017-08-25T13:06:31.742Z,45.10
2017-08-25T13:09:09.288Z,44.80
2017-08-25T13:11:58.281Z,44.40
2017-08-25T13:14:35.057Z,43.50
2017-08-25T13:17:19.221Z,44.80
2017-08-25T13:24:18.087Z,44.30
2017-08-25T13:26:48.865Z,45.10
2017-08-25T13:29:43.666Z,45.40
2017-08-25T13:32:36.529Z,45.70
2017-08-25T13:35:22.931Z,45.60
2017-08-25T13:40:30.752Z,45.40
2017-08-25T13:43:03.726Z,45.40
2017-08-25T13:48:26.305Z,45.50
2017-08-25T16:56:52.669Z,50.10
2017-08-25T16:59:20.925Z,50.50
2017-08-25T17:01:52.816Z,50.70
2017-08-25T17:04:28.785Z,51.00
2017-08-25T17:06:58.083Z,51.50
2017-08-25T17:09:28.377Z,51.20
2017-08-25T17:36:42.815Z,52.30
2017-08-25T17:39:16.821Z,52.60
2017-08-25T17:41:46.873Z,52.80
2017-08-25T17:44:16.750Z,52.70
2017-08-25T17:46:46.884Z,52.80
2017-08-25T18:50:32.160Z,57.00
2017-08-25T18:53:06.725Z,57.30
2017-08-25T19:01:58.335Z,56.80
2017-08-25T19:04:27.787Z,56.10
